createdAt,value
2023-05-04T00:02:05.073Z,88.81
2023-05-04T00:04:31.824Z,89.97
2023-05-04T00:06:58.547Z,91.34
2023-05-04T00:09:25.122Z,91.92
2023-05-04T00:11:51.596Z,91.46
2023-05-04T00:14:18.086Z,91.77
2023-05-04T00:16:44.580Z,90.08
2023-05-04T00:19:11.192Z,90.25
2023-05-04T00:21:40.401Z,89.42
2023-05-04T00:24:07.088Z,87.87
2023-05-04T00:26:33.723Z,87.30
2023-05-04T00:29:00.364Z,88.12
2023-05-04T00:31:27.311Z,89.05
2023-05-04T00:33:53.865Z,90.60
2023-05-04T00:36:20.476Z,90.88
2023-05-04T00:38:51.286Z,92.50
2023-05-04T00:41:18.672Z,93.40
2023-05-04T00:43:45.759Z,92.74
2023-05-04T00:46:13.173Z,94.19
2023-05-04T00:48:41.046Z,93.93
2023-05-04T00:51:10.830Z,93.42
2023-05-04T00:53:38.652Z,93.35
2023-05-04T00:56:06.884Z,94.70
2023-05-04T00:58:34.132Z,94.75
2023-05-04T01:01:02.446Z,96.51
2023-05-04T01:03:29.513Z,96.29
2023-05-04T01:06:18.949Z,95.53
2023-05-04T01:09:04.954Z,95.84
2023-05-04T01:11:40.838Z,94.71
2023-05-04T01:14:07.485Z,94.86
2023-05-04T01:16:34.096Z,95.30
2023-05-04T01:19:01.247Z,94.82
2023-05-04T01:21:29.118Z,95.32
2023-05-04T01:23:56.404Z,93.36
2023-05-04T01:26:28.094Z,95.06
2023-05-04T01:29:10.444Z,94.95
2023-05-04T01:31:41.284Z,94.07
2023-05-04T01:34:08.939Z,94.09
2023-05-04T01:36:36.012Z,94.44
2023-05-04T01:39:03.220Z,94.67
2023-05-04T01:41:30.209Z,95.02
2023-05-04T01:43:58.063Z,95.35
2023-05-04T01:46:24.643Z,95.86
2023-05-04T01:48:51.387Z,95.15
2023-05-04T01:51:17.821Z,95.44
2023-05-04T01:53:44.265Z,97.11
2023-05-04T01:56:10.929Z,97.80
2023-05-04T01:58:37.465Z,98.57
2023-05-04T02:01:04.011Z,95.01
2023-05-04T02:03:31.460Z,96.68
2023-05-04T02:05:58.017Z,97.91
2023-05-04T02:08:24.836Z,97.90
2023-05-04T02:10:51.277Z,98.94
2023-05-04T02:13:17.906Z,96.17
2023-05-04T02:15:46.670Z,96.53
2023-05-04T02:18:13.177Z,96.46
2023-05-04T02:20:39.679Z,96.62
2023-05-04T02:23:06.348Z,95.77
2023-05-04T02:25:32.966Z,97.50
2023-05-04T02:27:59.475Z,97.92
2023-05-04T02:30:25.978Z,97.30
2023-05-04T02:32:52.481Z,98.87
2023-05-04T02:35:19.118Z,98.91
2023-05-04T02:37:45.793Z,98.32
2023-05-04T02:40:12.921Z,97.81
2023-05-04T02:42:39.378Z,96.82
2023-05-04T02:45:07.676Z,97.73
2023-05-04T02:47:34.289Z,98.60
2023-05-04T02:50:00.786Z,97.95
2023-05-04T02:52:27.191Z,98.31
2023-05-04T02:54:53.619Z,99.41
2023-05-04T02:57:22.300Z,96.27
2023-05-04T02:59:51.410Z,98.42
2023-05-04T03:02:20.295Z,100.00
2023-05-04T03:04:52.310Z,99.71
2023-05-04T03:07:19.004Z,100.00
2023-05-04T03:09:47.756Z,99.08
2023-05-04T03:12:22.568Z,99.37
2023-05-04T03:14:49.158Z,100.00
2023-05-04T03:17:18.438Z,100.00
2023-05-04T03:19:45.673Z,100.00
2023-05-04T03:22:12.384Z,100.00
2023-05-04T03:24:39.872Z,100.00
2023-05-04T03:27:06.656Z,100.00
2023-05-04T03:29:40.782Z,100.00
2023-05-04T03:32:07.611Z,100.00
2023-05-04T03:34:34.457Z,100.00
2023-05-04T03:37:02.094Z,100.00
2023-05-04T03:39:28.719Z,99.90
2023-05-04T03:41:55.400Z,100.00
2023-05-04T03:44:21.989Z,100.00
2023-05-04T03:46:48.519Z,99.84
2023-05-04T03:49:15.152Z,98.94
2023-05-04T03:51:42.548Z,100.00
2023-05-04T03:54:25.911Z,100.00
2023-05-04T03:56:56.401Z,99.56
2023-05-04T03:59:23.066Z,100.00
2023-05-04T04:01:49.645Z,99.25
2023-05-04T04:04:16.250Z,98.28
2023-05-04T04:06:43.544Z,98.96
2023-05-04T04:09:10.526Z,96.88
2023-05-04T04:11:37.171Z,96.86
2023-05-04T04:14:03.826Z,97.21
2023-05-04T04:16:32.549Z,96.67
2023-05-04T04:18:59.136Z,96.78
2023-05-04T04:21:28.436Z,94.66
2023-05-04T04:23:54.996Z,91.56
2023-05-04T04:26:21.631Z,88.51
2023-05-04T04:28:51.034Z,86.38
2023-05-04T04:31:18.575Z,85.45
2023-05-04T04:33:45.280Z,83.28
2023-05-04T04:36:15.902Z,82.65
2023-05-04T04:38:43.294Z,81.90
2023-05-04T04:41:13.369Z,79.74
2023-05-04T04:43:39.788Z,80.50
2023-05-04T04:46:06.212Z,79.07
2023-05-04T04:48:32.619Z,78.39
2023-05-04T04:50:59.076Z,78.26
2023-05-04T04:53:25.907Z,77.75
2023-05-04T04:55:57.413Z,77.35
2023-05-04T04:58:23.803Z,76.14
2023-05-04T05:00:52.097Z,74.42
2023-05-04T05:03:18.816Z,73.26
2023-05-04T05:05:45.279Z,71.32
2023-05-04T05:08:11.717Z,71.07
2023-05-04T05:10:38.168Z,70.06
2023-05-04T05:13:04.883Z,69.65
2023-05-04T05:15:31.279Z,68.84
2023-05-04T05:17:57.683Z,67.73
2023-05-04T05:20:24.415Z,66.53
2023-05-04T05:22:52.180Z,63.41
2023-05-04T05:25:19.322Z,63.10
2023-05-04T05:27:45.940Z,61.62
2023-05-04T05:30:12.565Z,60.81
2023-05-04T05:32:39.284Z,59.66
2023-05-04T05:35:06.282Z,58.68
2023-05-04T05:37:32.851Z,57.75
2023-05-04T05:39:59.293Z,57.38
2023-05-04T05:42:25.751Z,55.79
2023-05-04T05:44:52.192Z,56.84
2023-05-04T05:47:18.585Z,56.37
2023-05-04T05:49:46.352Z,54.08
2023-05-04T05:52:12.989Z,55.16
2023-05-04T05:54:39.372Z,54.73
2023-05-04T05:57:05.791Z,54.14
2023-05-04T05:59:32.210Z,55.02
2023-05-04T06:01:58.728Z,56.54
2023-05-04T06:04:25.243Z,56.70
2023-05-04T06:06:51.715Z,53.99
2023-05-04T06:09:18.113Z,55.81
2023-05-04T06:11:44.589Z,54.57
2023-05-04T06:14:11.041Z,52.13
2023-05-04T06:16:37.498Z,50.99
2023-05-04T06:19:03.954Z,51.20
2023-05-04T06:21:30.401Z,54.11
2023-05-04T06:23:56.786Z,54.25
2023-05-04T06:26:23.585Z,55.29
2023-05-04T06:28:50.065Z,52.03
2023-05-04T06:31:16.529Z,54.20
2023-05-04T06:33:43.030Z,54.85
2023-05-04T06:36:09.723Z,55.17
2023-05-04T06:38:38.015Z,51.08
2023-05-04T06:41:05.666Z,50.05
2023-05-04T06:43:33.043Z,49.33
2023-05-04T06:46:05.647Z,48.57
2023-05-04T06:48:32.189Z,43.53
2023-05-04T06:51:00.214Z,41.67
2023-05-04T06:53:28.051Z,41.06
2023-05-04T06:55:54.481Z,40.80
2023-05-04T06:58:22.006Z,42.39
2023-05-04T07:00:48.523Z,43.14
2023-05-04T07:03:15.210Z,39.88
2023-05-04T07:05:42.445Z,41.55
2023-05-04T07:08:09.824Z,38.34
2023-05-04T07:10:36.258Z,38.42
2023-05-04T07:13:02.878Z,39.60
2023-05-04T07:15:29.715Z,40.78
2023-05-04T07:17:56.175Z,38.49
2023-05-04T07:20:25.689Z,39.07
2023-05-04T07:22:56.992Z,39.70
2023-05-04T07:25:27.652Z,37.85
2023-05-04T07:27:54.452Z,39.56
2023-05-04T07:30:21.392Z,38.03
2023-05-04T07:32:56.792Z,36.19
2023-05-04T07:35:23.311Z,37.32
2023-05-04T07:37:50.101Z,38.92
2023-05-04T07:40:16.709Z,36.77
2023-05-04T07:42:43.183Z,35.75
2023-05-04T07:45:10.485Z,38.94
2023-05-04T07:47:37.256Z,39.94
2023-05-04T07:50:05.034Z,36.87
2023-05-04T07:52:31.731Z,37.62
2023-05-04T07:54:58.154Z,37.55
2023-05-04T07:57:24.677Z,37.07
2023-05-04T07:59:55.379Z,37.45
2023-05-04T08:02:22.019Z,36.91
2023-05-04T08:04:48.524Z,35.54
2023-05-04T08:07:18.820Z,36.60
2023-05-04T08:09:45.348Z,37.98
2023-05-04T08:12:12.330Z,37.95
2023-05-04T08:14:39.704Z,36.46
2023-05-04T08:17:06.365Z,37.80
2023-05-04T08:19:33.904Z,36.76
2023-05-04T08:22:00.326Z,36.87
2023-05-04T08:24:26.716Z,37.36
2023-05-04T08:27:04.145Z,37.94
2023-05-04T08:29:36.196Z,38.03
2023-05-04T08:32:02.672Z,36.04
2023-05-04T08:34:30.166Z,37.28
2023-05-04T08:36:56.680Z,36.69
2023-05-04T08:39:23.083Z,36.52
2023-05-04T08:41:49.538Z,37.04
2023-05-04T08:44:17.555Z,39.02
2023-05-04T08:46:44.188Z,39.38
2023-05-04T08:49:10.657Z,39.25
2023-05-04T08:51:37.469Z,40.56
2023-05-04T08:54:10.339Z,40.08
2023-05-04T08:56:38.780Z,40.41
2023-05-04T08:59:06.011Z,41.18
2023-05-04T09:01:37.844Z,41.20
2023-05-04T09:04:05.107Z,40.98
2023-05-04T09:06:31.902Z,41.53
2023-05-04T09:08:58.314Z,40.30
2023-05-04T09:11:24.800Z,40.08
2023-05-04T09:13:51.570Z,40.80
2023-05-04T09:16:19.400Z,40.73
2023-05-04T09:18:47.232Z,40.77
2023-05-04T09:21:13.757Z,41.44
2023-05-04T09:23:51.222Z,41.98
2023-05-04T09:26:31.465Z,41.75
2023-05-04T09:29:10.517Z,39.63
2023-05-04T09:31:51.215Z,39.91
2023-05-04T09:34:20.407Z,40.73
2023-05-04T09:37:02.008Z,40.81
2023-05-04T09:39:29.027Z,41.11
2023-05-04T09:41:55.524Z,40.01
2023-05-04T09:44:23.849Z,40.69
2023-05-04T09:46:55.112Z,39.83
2023-05-04T09:49:35.147Z,40.52
2023-05-04T09:52:03.322Z,40.11
2023-05-04T09:54:35.149Z,40.51
2023-05-04T09:57:11.855Z,40.21
2023-05-04T09:59:39.493Z,39.94
2023-05-04T10:02:18.118Z,40.74
2023-05-04T10:04:50.502Z,40.29
2023-05-04T10:07:17.972Z,40.70
2023-05-04T10:09:44.697Z,39.74
2023-05-04T10:12:12.082Z,39.12
2023-05-04T10:14:38.872Z,39.20
2023-05-04T10:17:21.164Z,39.02
2023-05-04T10:20:07.383Z,38.66
2023-05-04T10:23:11.072Z,38.04
2023-05-04T10:25:43.671Z,39.43
2023-05-04T10:28:35.345Z,40.73
2023-05-04T10:31:02.264Z,38.99
2023-05-04T10:33:41.970Z,38.08
2023-05-04T10:36:09.717Z,37.10
2023-05-04T10:38:37.451Z,39.57
2023-05-04T10:41:17.384Z,40.21
2023-05-04T10:43:48.877Z,37.75
2023-05-04T10:46:19.775Z,38.04
2023-05-04T10:48:46.349Z,37.78
2023-05-04T10:51:32.608Z,38.06
2023-05-04T10:54:05.495Z,37.29
2023-05-04T10:56:31.881Z,38.33
2023-05-04T10:59:09.147Z,36.89
2023-05-04T11:01:42.735Z,37.77
2023-05-04T11:04:21.242Z,36.65
2023-05-04T11:07:17.101Z,38.09
2023-05-04T11:09:44.404Z,38.25
2023-05-04T11:12:14.715Z,38.88
2023-05-04T11:14:43.131Z,37.82
2023-05-04T11:19:52.729Z,36.63
2023-05-04T11:22:19.324Z,37.27
2023-05-04T11:24:46.674Z,37.66
2023-05-04T11:27:33.446Z,37.40
2023-05-04T11:30:01.834Z,36.28
2023-05-04T11:32:35.270Z,36.99
2023-05-04T11:35:16.287Z,37.30
2023-05-04T11:37:43.540Z,35.56
2023-05-04T11:40:11.253Z,36.03
2023-05-04T11:42:40.040Z,36.89
2023-05-04T11:45:34.640Z,35.52
2023-05-04T11:48:02.358Z,34.80
2023-05-04T11:50:29.221Z,33.33
2023-05-04T11:53:06.859Z,34.07
2023-05-04T11:55:33.507Z,34.15
2023-05-04T11:58:07.656Z,35.89
2023-05-04T12:00:49.188Z,35.22
2023-05-04T12:03:25.966Z,34.40
2023-05-04T12:05:57.724Z,35.07
2023-05-04T12:08:31.647Z,33.90
2023-05-04T12:11:20.512Z,34.17
2023-05-04T12:13:49.279Z,33.96
2023-05-04T12:16:20.866Z,33.74
2023-05-04T12:18:48.567Z,31.36
2023-05-04T12:21:20.304Z,34.43
2023-05-04T12:23:48.948Z,33.67
2023-05-04T12:26:18.829Z,33.64
2023-05-04T12:28:46.241Z,33.68
2023-05-04T12:31:13.107Z,32.80
2023-05-04T12:33:39.807Z,30.92
2023-05-04T12:36:07.142Z,31.77
2023-05-04T12:38:34.277Z,30.19
2023-05-04T12:41:04.299Z,31.44
2023-05-04T12:43:32.998Z,33.47
2023-05-04T12:46:00.011Z,32.03
2023-05-04T12:48:29.222Z,32.33
2023-05-04T12:50:56.157Z,29.62
2023-05-04T12:53:25.747Z,29.33
2023-05-04T12:55:52.414Z,31.83
2023-05-04T12:58:19.122Z,29.88
2023-05-04T13:00:46.472Z,28.54
2023-05-04T13:03:13.732Z,29.17
2023-05-04T13:05:40.581Z,28.57
2023-05-04T13:08:09.978Z,30.16
2023-05-04T13:10:36.557Z,28.58
2023-05-04T13:13:04.856Z,28.59
2023-05-04T13:15:33.293Z,29.27
2023-05-04T13:18:00.594Z,28.30
2023-05-04T13:20:27.412Z,28.22
2023-05-04T13:22:58.224Z,29.43
2023-05-04T13:25:25.230Z,28.85
2023-05-04T13:27:51.999Z,28.16
2023-05-04T13:30:20.441Z,28.64
2023-05-04T13:32:47.296Z,28.88
2023-05-04T13:35:13.795Z,30.38
2023-05-04T13:37:40.278Z,29.17
2023-05-04T13:40:07.317Z,29.22
2023-05-04T13:42:36.909Z,29.70
2023-05-04T13:45:04.047Z,28.85
2023-05-04T13:47:30.773Z,29.01
2023-05-04T13:49:57.320Z,27.63
2023-05-04T13:52:24.147Z,29.03
2023-05-04T13:54:50.657Z,27.22
2023-05-04T13:57:18.085Z,27.73
2023-05-04T13:59:51.621Z,28.10
2023-05-04T14:02:25.187Z,28.49
2023-05-04T14:04:51.721Z,28.76
2023-05-04T14:07:18.580Z,27.96
2023-05-04T14:09:45.159Z,29.16
2023-05-04T14:12:11.721Z,28.77
2023-05-04T14:14:38.176Z,29.43
2023-05-04T14:17:04.686Z,29.00
2023-05-04T14:19:31.262Z,28.79
2023-05-04T14:21:57.836Z,28.65
2023-05-04T14:24:25.328Z,29.06
2023-05-04T14:26:51.883Z,28.67
2023-05-04T14:29:18.388Z,28.29
2023-05-04T14:31:44.851Z,28.22
2023-05-04T14:34:12.375Z,27.81
2023-05-04T14:36:38.832Z,27.02
2023-05-04T14:39:05.336Z,25.62
2023-05-04T14:41:33.675Z,27.70
2023-05-04T14:44:00.608Z,27.28
2023-05-04T14:46:29.324Z,27.56
2023-05-04T14:48:55.971Z,26.88
2023-05-04T14:51:23.800Z,25.47
2023-05-04T14:53:53.688Z,26.14
2023-05-04T14:56:20.675Z,26.05
2023-05-04T14:58:47.216Z,25.08
2023-05-04T15:01:13.931Z,24.24
2023-05-04T15:03:40.501Z,24.97
2023-05-04T15:06:08.697Z,26.10
2023-05-04T15:08:35.140Z,25.46
2023-05-04T15:11:01.544Z,26.52
2023-05-04T15:13:28.001Z,26.06
2023-05-04T15:15:54.601Z,26.04
2023-05-04T15:18:21.601Z,25.41
2023-05-04T15:20:48.075Z,25.30
2023-05-04T15:23:14.541Z,24.37
2023-05-04T15:25:41.954Z,25.28
2023-05-04T15:28:10.794Z,25.70
2023-05-04T15:30:38.415Z,25.06
2023-05-04T15:33:05.608Z,25.29
2023-05-04T15:35:33.178Z,25.17
2023-05-04T15:38:14.395Z,25.66
2023-05-04T15:40:45.131Z,26.56
2023-05-04T15:43:12.140Z,26.20
2023-05-04T15:45:38.614Z,26.00
2023-05-04T15:48:05.875Z,26.53
2023-05-04T15:50:33.264Z,26.08
2023-05-04T15:52:59.853Z,24.66
2023-05-04T15:55:26.865Z,25.08
2023-05-04T15:57:54.220Z,25.10
2023-05-04T16:00:21.270Z,25.59
2023-05-04T16:02:48.043Z,26.03
2023-05-04T16:05:14.624Z,26.38
2023-05-04T16:07:41.168Z,26.40
2023-05-04T16:10:08.750Z,26.62
2023-05-04T16:12:35.530Z,25.54
2023-05-04T16:15:02.052Z,26.37
2023-05-04T16:17:29.323Z,25.38
2023-05-04T16:19:56.043Z,26.01
2023-05-04T16:22:22.516Z,25.35
2023-05-04T16:24:48.928Z,26.16
2023-05-04T16:27:16.374Z,25.69
2023-05-04T16:29:42.850Z,25.60
2023-05-04T16:32:09.326Z,25.80
2023-05-04T16:34:35.858Z,26.57
2023-05-04T16:37:02.676Z,26.06
2023-05-04T16:39:31.225Z,26.45
2023-05-04T16:41:58.204Z,25.53
2023-05-04T16:44:24.686Z,25.90
2023-05-04T16:46:51.669Z,25.84
2023-05-04T16:49:18.574Z,26.59
2023-05-04T16:51:45.088Z,26.50
2023-05-04T16:54:11.515Z,25.93
2023-05-04T16:56:37.985Z,26.23
2023-05-04T16:59:04.443Z,26.21
2023-05-04T17:01:30.899Z,26.05
2023-05-04T17:03:58.718Z,26.18
2023-05-04T17:06:25.404Z,25.35
2023-05-04T17:08:51.822Z,24.71
2023-05-04T17:11:18.487Z,25.74
2023-05-04T17:13:45.356Z,25.66
2023-05-04T17:16:11.863Z,26.07
2023-05-04T17:18:38.460Z,25.35
2023-05-04T17:21:04.969Z,25.22
2023-05-04T17:23:31.468Z,25.53
2023-05-04T17:25:57.933Z,26.08
2023-05-04T17:28:24.357Z,25.04
2023-05-04T17:30:51.012Z,25.20
2023-05-04T17:33:19.762Z,25.31
2023-05-04T17:35:46.284Z,24.34
2023-05-04T17:38:12.681Z,25.16
2023-05-04T17:40:39.247Z,24.97
2023-05-04T17:43:05.746Z,25.26
2023-05-04T17:45:32.181Z,25.22
2023-05-04T17:47:59.187Z,25.41
2023-05-04T17:50:26.027Z,25.91
2023-05-04T17:52:54.663Z,25.78
2023-05-04T17:55:25.843Z,25.93
2023-05-04T17:57:54.141Z,26.20
2023-05-04T18:00:21.276Z,25.93
2023-05-04T18:02:47.817Z,26.50
2023-05-04T18:05:14.339Z,26.78
2023-05-04T18:07:40.798Z,27.66
2023-05-04T18:10:08.002Z,27.34
2023-05-04T18:12:35.578Z,28.67
2023-05-04T18:15:03.780Z,29.81
2023-05-04T18:17:30.328Z,28.35
2023-05-04T18:19:56.815Z,29.21
2023-05-04T18:22:23.258Z,29.82
2023-05-04T18:24:49.889Z,29.69
2023-05-04T18:27:16.419Z,30.23
2023-05-04T18:29:42.994Z,31.88
2023-05-04T18:32:10.667Z,31.93
2023-05-04T18:34:37.753Z,33.56
2023-05-04T18:37:04.197Z,34.78
2023-05-04T18:39:31.764Z,35.25
2023-05-04T18:42:00.736Z,34.44
2023-05-04T18:44:27.149Z,34.16
2023-05-04T18:46:53.541Z,35.33
2023-05-04T18:49:20.080Z,35.14
2023-05-04T18:51:46.606Z,37.83
2023-05-04T18:54:14.871Z,38.35
2023-05-04T18:56:41.291Z,36.31
2023-05-04T18:59:07.819Z,35.22
2023-05-04T19:01:34.447Z,34.48
2023-05-04T19:04:01.099Z,34.61
2023-05-04T19:06:27.620Z,35.19
2023-05-04T19:08:54.134Z,35.17
2023-05-04T19:11:20.652Z,33.99
2023-05-04T19:13:47.225Z,34.00
2023-05-04T19:16:13.887Z,32.88
2023-05-04T19:18:40.566Z,33.79
2023-05-04T19:21:06.987Z,33.53
2023-05-04T19:23:33.427Z,34.27
2023-05-04T19:26:00.037Z,34.33
2023-05-04T19:28:26.520Z,33.55
2023-05-04T19:30:54.037Z,32.74
2023-05-04T19:33:20.617Z,32.56
2023-05-04T19:35:47.037Z,33.21
2023-05-04T19:38:13.550Z,32.89
2023-05-04T19:40:41.611Z,32.60
2023-05-04T19:43:09.337Z,33.36
2023-05-04T19:45:35.828Z,33.13
2023-05-04T19:48:04.783Z,34.13
2023-05-04T19:50:31.611Z,34.98
2023-05-04T19:52:58.027Z,36.83
2023-05-04T19:55:24.417Z,37.54
2023-05-04T19:57:50.904Z,36.89
2023-05-04T20:00:19.290Z,36.63
2023-05-04T20:02:46.360Z,38.37
2023-05-04T20:05:13.658Z,38.18
2023-05-04T20:07:40.425Z,38.76
2023-05-04T20:10:08.204Z,38.86
2023-05-04T20:12:35.007Z,40.47
2023-05-04T20:15:01.666Z,41.14
2023-05-04T20:17:28.262Z,41.55
2023-05-04T20:19:54.770Z,40.65
2023-05-04T20:22:21.434Z,42.11
2023-05-04T20:24:48.137Z,42.77
2023-05-04T20:27:14.551Z,43.28
2023-05-04T20:29:40.960Z,43.18
2023-05-04T20:32:08.934Z,43.22
2023-05-04T20:34:36.410Z,43.77
2023-05-04T20:37:02.863Z,44.61
2023-05-04T20:39:29.294Z,44.56
2023-05-04T20:41:55.921Z,44.88
2023-05-04T20:44:22.371Z,45.16
2023-05-04T20:46:49.064Z,45.99
2023-05-04T20:49:15.573Z,45.82
2023-05-04T20:51:42.199Z,45.15
2023-05-04T20:54:08.598Z,45.02
2023-05-04T20:56:35.021Z,44.82
2023-05-04T20:59:01.423Z,43.37
2023-05-04T21:01:29.656Z,42.46
2023-05-04T21:03:56.410Z,41.21
2023-05-04T21:06:24.355Z,40.86
2023-05-04T21:08:50.904Z,40.09
2023-05-04T21:11:17.415Z,39.86
2023-05-04T21:13:43.831Z,39.56
2023-05-04T21:16:11.326Z,39.71
2023-05-04T21:18:37.822Z,40.17
2023-05-04T21:21:07.179Z,41.92
2023-05-04T21:23:33.631Z,41.72
2023-05-04T21:26:04.061Z,41.65
2023-05-04T21:28:31.550Z,41.12
2023-05-04T21:30:58.159Z,41.57
2023-05-04T21:33:24.799Z,41.62
2023-05-04T21:35:51.379Z,42.96
2023-05-04T21:38:19.582Z,43.14
2023-05-04T21:40:48.216Z,43.18
2023-05-04T21:43:14.621Z,43.65
2023-05-04T21:45:41.090Z,43.80
2023-05-04T21:48:07.503Z,44.92
2023-05-04T21:50:34.061Z,44.02
2023-05-04T21:53:00.436Z,44.47
2023-05-04T21:55:28.340Z,44.88
2023-05-04T21:57:54.781Z,45.31
2023-05-04T22:00:21.231Z,45.39
2023-05-04T22:02:47.648Z,45.86
2023-05-04T22:05:14.270Z,47.61
2023-05-04T22:07:40.665Z,47.65
2023-05-04T22:10:07.979Z,48.61
2023-05-04T22:12:34.646Z,48.79
2023-05-04T22:15:01.076Z,48.89
2023-05-04T22:17:27.516Z,49.29
2023-05-04T22:19:53.963Z,50.60
2023-05-04T22:22:20.554Z,51.06
2023-05-04T22:24:54.248Z,51.48
2023-05-04T22:27:20.677Z,50.55
2023-05-04T22:29:47.060Z,50.46
2023-05-04T22:32:13.523Z,49.30
2023-05-04T22:34:39.944Z,49.98
2023-05-04T22:37:06.504Z,50.51
2023-05-04T22:39:32.949Z,50.63
2023-05-04T22:41:59.428Z,51.33
2023-05-04T22:44:25.820Z,51.89
2023-05-04T22:46:52.285Z,53.74
2023-05-04T22:49:18.799Z,55.03
2023-05-04T22:51:45.266Z,55.97
2023-05-04T22:54:11.878Z,57.13
2023-05-04T22:56:38.287Z,57.59
2023-05-04T22:59:05.841Z,58.97
2023-05-04T23:01:32.438Z,60.28
2023-05-04T23:03:58.913Z,60.44
2023-05-04T23:06:25.335Z,58.30
2023-05-04T23:08:52.233Z,57.69
2023-05-04T23:11:22.087Z,57.43
2023-05-04T23:13:48.538Z,58.07
2023-05-04T23:16:14.983Z,60.08
2023-05-04T23:18:41.406Z,59.88
2023-05-04T23:21:07.822Z,61.55
2023-05-04T23:23:34.834Z,63.37
2023-05-04T23:26:01.237Z,63.67
2023-05-04T23:28:27.672Z,65.28
2023-05-04T23:30:55.631Z,64.83
2023-05-04T23:33:22.194Z,66.25
2023-05-04T23:35:48.594Z,68.24
2023-05-04T23:38:15.880Z,68.91
2023-05-04T23:40:42.261Z,69.76
2023-05-04T23:43:08.714Z,70.16
2023-05-04T23:45:35.171Z,69.40
2023-05-04T23:48:01.767Z,69.97
2023-05-04T23:50:28.159Z,70.13
2023-05-04T23:52:54.556Z,71.15
2023-05-04T23:55:21.180Z,71.21
2023-05-04T23:57:47.692Z,73.16
